sensor_id;sensor_type;location;lat;lon;timestamp;P1;durP1;ratioP1;P2;durP2;ratioP2
25615;SDS011;13482;48.234;13.006;2024-01-30T00:10:01;8.40;;;5.13;;
25615;SDS011;13482;48.234;13.006;2024-01-30T00:15:05;7.47;;;5.68;;
25615;SDS011;13482;48.234;13.006;2024-01-30T00:17:36;7.63;;;5.65;;
25615;SDS011;13482;48.234;13.006;2024-01-30T00:20:04;7.57;;;5.90;;
25615;SDS011;13482;48.234;13.006;2024-01-30T00:22:38;8.55;;;5.22;;
25615;SDS011;13482;48.234;13.006;2024-01-30T00:26:49;6.43;;;4.53;;
25615;SDS011;13482;48.234;13.006;2024-01-30T00:30:48;7.20;;;4.30;;
25615;SDS011;13482;48.234;13.006;2024-01-30T00:33:24;7.40;;;5.13;;
25615;SDS011;13482;48.234;13.006;2024-01-30T00:41:50;7.05;;;4.15;;
25615;SDS011;13482;48.234;13.006;2024-01-30T00:44:49;7.28;;;5.03;;
25615;SDS011;13482;48.234;13.006;2024-01-30T00:50:58;7.20;;;5.00;;
25615;SDS011;13482;48.234;13.006;2024-01-30T00:53:24;6.47;;;4.68;;
25615;SDS011;13482;48.234;13.006;2024-01-30T00:55:52;8.07;;;5.13;;
25615;SDS011;13482;48.234;13.006;2024-01-30T00:58:18;9.05;;;5.57;;
25615;SDS011;13482;48.234;13.006;2024-01-30T01:00:45;8.68;;;5.70;;
25615;SDS011;13482;48.234;13.006;2024-01-30T01:03:14;9.35;;;5.90;;
25615;SDS011;13482;48.234;13.006;2024-01-30T01:05:40;8.55;;;5.80;;
25615;SDS011;13482;48.234;13.006;2024-01-30T01:08:07;8.73;;;5.95;;
25615;SDS011;13482;48.234;13.006;2024-01-30T01:10:49;9.00;;;6.28;;
25615;SDS011;13482;48.234;13.006;2024-01-30T01:15:58;6.72;;;4.80;;
25615;SDS011;13482;48.234;13.006;2024-01-30T01:18:26;7.90;;;5.60;;
25615;SDS011;13482;48.234;13.006;2024-01-30T01:20:54;8.00;;;5.95;;
25615;SDS011;13482;48.234;13.006;2024-01-30T01:23:22;9.20;;;6.20;;
25615;SDS011;13482;48.234;13.006;2024-01-30T01:25:49;8.55;;;5.28;;
25615;SDS011;13482;48.234;13.006;2024-01-30T01:28:17;8.85;;;6.20;;
25615;SDS011;13482;48.234;13.006;2024-01-30T01:30:45;8.80;;;5.95;;
25615;SDS011;13482;48.234;13.006;2024-01-30T01:33:16;8.65;;;6.20;;
25615;SDS011;13482;48.234;13.006;2024-01-30T01:35:44;8.40;;;5.75;;
25615;SDS011;13482;48.234;13.006;2024-01-30T01:38:11;8.95;;;6.25;;
25615;SDS011;13482;48.234;13.006;2024-01-30T01:40:39;9.40;;;6.22;;
25615;SDS011;13482;48.234;13.006;2024-01-30T01:43:07;10.75;;;6.40;;
25615;SDS011;13482;48.234;13.006;2024-01-30T01:45:35;8.52;;;5.63;;
25615;SDS011;13482;48.234;13.006;2024-01-30T01:48:03;8.82;;;6.20;;
25615;SDS011;13482;48.234;13.006;2024-01-30T01:50:31;8.98;;;6.40;;
25615;SDS011;13482;48.234;13.006;2024-01-30T01:52:59;9.02;;;6.43;;
25615;SDS011;13482;48.234;13.006;2024-01-30T01:55:28;10.93;;;7.25;;
25615;SDS011;13482;48.234;13.006;2024-01-30T01:57:58;9.50;;;6.18;;
25615;SDS011;13482;48.234;13.006;2024-01-30T02:00:26;10.95;;;6.50;;
25615;SDS011;13482;48.234;13.006;2024-01-30T02:02:55;9.07;;;6.00;;
25615;SDS011;13482;48.234;13.006;2024-01-30T02:05:24;11.82;;;6.13;;
25615;SDS011;13482;48.234;13.006;2024-01-30T02:07:52;9.35;;;6.22;;
25615;SDS011;13482;48.234;13.006;2024-01-30T02:10:21;9.65;;;6.47;;
25615;SDS011;13482;48.234;13.006;2024-01-30T02:12:49;9.52;;;6.63;;
25615;SDS011;13482;48.234;13.006;2024-01-30T02:15:17;9.25;;;6.72;;
25615;SDS011;13482;48.234;13.006;2024-01-30T02:17:45;9.32;;;6.75;;
25615;SDS011;13482;48.234;13.006;2024-01-30T02:20:13;9.25;;;6.03;;
25615;SDS011;13482;48.234;13.006;2024-01-30T02:22:41;9.93;;;6.40;;
25615;SDS011;13482;48.234;13.006;2024-01-30T02:25:10;8.02;;;5.68;;
25615;SDS011;13482;48.234;13.006;2024-01-30T02:27:38;9.00;;;6.10;;
25615;SDS011;13482;48.234;13.006;2024-01-30T02:30:06;9.02;;;6.20;;
25615;SDS011;13482;48.234;13.006;2024-01-30T02:32:34;10.00;;;6.30;;
25615;SDS011;13482;48.234;13.006;2024-01-30T02:35:02;11.30;;;7.25;;
25615;SDS011;13482;48.234;13.006;2024-01-30T02:37:32;9.77;;;6.47;;
25615;SDS011;13482;48.234;13.006;2024-01-30T02:39:59;9.35;;;6.40;;
25615;SDS011;13482;48.234;13.006;2024-01-30T02:42:27;9.43;;;6.35;;
25615;SDS011;13482;48.234;13.006;2024-01-30T02:44:55;9.57;;;6.07;;
25615;SDS011;13482;48.234;13.006;2024-01-30T02:47:23;9.60;;;6.22;;
25615;SDS011;13482;48.234;13.006;2024-01-30T02:49:50;9.80;;;6.45;;
25615;SDS011;13482;48.234;13.006;2024-01-30T02:52:21;9.25;;;6.70;;
25615;SDS011;13482;48.234;13.006;2024-01-30T02:54:49;9.50;;;6.47;;
25615;SDS011;13482;48.234;13.006;2024-01-30T02:57:17;11.85;;;6.78;;
25615;SDS011;13482;48.234;13.006;2024-01-30T02:59:44;9.13;;;6.40;;
25615;SDS011;13482;48.234;13.006;2024-01-30T03:02:12;9.20;;;5.82;;
25615;SDS011;13482;48.234;13.006;2024-01-30T03:04:42;9.77;;;6.18;;
25615;SDS011;13482;48.234;13.006;2024-01-30T03:07:10;8.55;;;6.25;;
25615;SDS011;13482;48.234;13.006;2024-01-30T03:09:38;7.90;;;6.10;;
25615;SDS011;13482;48.234;13.006;2024-01-30T03:12:05;8.18;;;5.85;;
25615;SDS011;13482;48.234;13.006;2024-01-30T03:14:36;8.98;;;6.05;;
25615;SDS011;13482;48.234;13.006;2024-01-30T03:17:04;10.52;;;6.38;;
25615;SDS011;13482;48.234;13.006;2024-01-30T03:19:32;8.18;;;5.55;;
25615;SDS011;13482;48.234;13.006;2024-01-30T03:21:59;8.55;;;5.75;;
25615;SDS011;13482;48.234;13.006;2024-01-30T03:24:27;9.68;;;6.22;;
25615;SDS011;13482;48.234;13.006;2024-01-30T03:26:55;8.23;;;5.53;;
25615;SDS011;13482;48.234;13.006;2024-01-30T03:29:22;8.40;;;5.18;;
25615;SDS011;13482;48.234;13.006;2024-01-30T03:31:50;7.78;;;5.63;;
25615;SDS011;13482;48.234;13.006;2024-01-30T03:34:17;8.50;;;6.00;;
25615;SDS011;13482;48.234;13.006;2024-01-30T03:36:45;8.70;;;6.30;;
25615;SDS011;13482;48.234;13.006;2024-01-30T03:39:13;8.65;;;5.70;;
25615;SDS011;13482;48.234;13.006;2024-01-30T03:41:42;8.60;;;5.68;;
25615;SDS011;13482;48.234;13.006;2024-01-30T03:44:11;9.10;;;5.57;;
25615;SDS011;13482;48.234;13.006;2024-01-30T03:46:38;8.90;;;6.28;;
25615;SDS011;13482;48.234;13.006;2024-01-30T03:49:05;8.75;;;6.07;;
25615;SDS011;13482;48.234;13.006;2024-01-30T03:51:33;11.18;;;6.60;;
25615;SDS011;13482;48.234;13.006;2024-01-30T03:54:01;11.43;;;7.05;;
25615;SDS011;13482;48.234;13.006;2024-01-30T03:56:28;11.27;;;7.18;;
25615;SDS011;13482;48.234;13.006;2024-01-30T04:01:31;13.45;;;7.93;;
25615;SDS011;13482;48.234;13.006;2024-01-30T04:03:59;13.48;;;7.82;;
25615;SDS011;13482;48.234;13.006;2024-01-30T04:06:27;12.68;;;7.68;;
25615;SDS011;13482;48.234;13.006;2024-01-30T04:08:54;12.77;;;7.20;;
25615;SDS011;13482;48.234;13.006;2024-01-30T04:11:22;17.98;;;7.65;;
25615;SDS011;13482;48.234;13.006;2024-01-30T04:13:50;16.08;;;7.38;;
25615;SDS011;13482;48.234;13.006;2024-01-30T04:16:21;14.82;;;7.32;;
25615;SDS011;13482;48.234;13.006;2024-01-30T04:18:51;14.35;;;7.03;;
25615;SDS011;13482;48.234;13.006;2024-01-30T04:21:20;13.20;;;8.10;;
25615;SDS011;13482;48.234;13.006;2024-01-30T04:23:50;33.33;;;17.65;;
25615;SDS011;13482;48.234;13.006;2024-01-30T04:26:18;29.88;;;14.60;;
25615;SDS011;13482;48.234;13.006;2024-01-30T04:34:10;25.65;;;12.18;;
25615;SDS011;13482;48.234;13.006;2024-01-30T04:36:38;32.70;;;13.93;;
25615;SDS011;13482;48.234;13.006;2024-01-30T04:39:06;34.35;;;14.95;;
25615;SDS011;13482;48.234;13.006;2024-01-30T04:41:35;32.20;;;15.25;;
25615;SDS011;13482;48.234;13.006;2024-01-30T04:44:05;26.38;;;12.95;;
25615;SDS011;13482;48.234;13.006;2024-01-30T04:46:33;20.38;;;10.73;;
25615;SDS011;13482;48.234;13.006;2024-01-30T04:54:46;12.52;;;8.05;;
25615;SDS011;13482;48.234;13.006;2024-01-30T04:57:14;12.93;;;7.60;;
25615;SDS011;13482;48.234;13.006;2024-01-30T04:59:41;14.70;;;8.65;;
25615;SDS011;13482;48.234;13.006;2024-01-30T05:02:09;10.07;;;6.55;;
25615;SDS011;13482;48.234;13.006;2024-01-30T05:15:50;10.60;;;7.07;;
25615;SDS011;13482;48.234;13.006;2024-01-30T05:18:17;10.55;;;6.15;;
25615;SDS011;13482;48.234;13.006;2024-01-30T05:20:45;9.30;;;6.10;;
25615;SDS011;13482;48.234;13.006;2024-01-30T05:23:13;10.02;;;6.10;;
25615;SDS011;13482;48.234;13.006;2024-01-30T05:25:41;9.75;;;6.47;;
25615;SDS011;13482;48.234;13.006;2024-01-30T05:28:09;10.60;;;7.07;;
25615;SDS011;13482;48.234;13.006;2024-01-30T05:30:36;7.82;;;5.85;;
25615;SDS011;13482;48.234;13.006;2024-01-30T05:33:04;8.63;;;6.20;;
25615;SDS011;13482;48.234;13.006;2024-01-30T05:35:32;7.88;;;5.35;;
25615;SDS011;13482;48.234;13.006;2024-01-30T05:37:59;6.43;;;5.00;;
25615;SDS011;13482;48.234;13.006;2024-01-30T05:40:26;8.35;;;6.05;;
25615;SDS011;13482;48.234;13.006;2024-01-30T05:42:54;7.80;;;5.45;;
25615;SDS011;13482;48.234;13.006;2024-01-30T05:45:21;9.65;;;5.72;;
25615;SDS011;13482;48.234;13.006;2024-01-30T05:47:49;8.10;;;5.78;;
25615;SDS011;13482;48.234;13.006;2024-01-30T05:50:17;8.73;;;5.88;;
25615;SDS011;13482;48.234;13.006;2024-01-30T05:52:45;7.63;;;5.50;;
25615;SDS011;13482;48.234;13.006;2024-01-30T05:55:12;7.85;;;5.70;;
25615;SDS011;13482;48.234;13.006;2024-01-30T05:57:40;7.65;;;5.55;;
25615;SDS011;13482;48.234;13.006;2024-01-30T06:00:14;8.38;;;6.20;;
25615;SDS011;13482;48.234;13.006;2024-01-30T06:03:08;7.65;;;6.03;;
25615;SDS011;13482;48.234;13.006;2024-01-30T06:05:53;9.02;;;6.00;;
25615;SDS011;13482;48.234;13.006;2024-01-30T06:08:21;8.57;;;6.32;;
25615;SDS011;13482;48.234;13.006;2024-01-30T06:10:48;8.20;;;6.28;;
25615;SDS011;13482;48.234;13.006;2024-01-30T06:13:16;8.93;;;6.20;;
25615;SDS011;13482;48.234;13.006;2024-01-30T06:15:43;9.93;;;6.72;;
25615;SDS011;13482;48.234;13.006;2024-01-30T06:18:11;9.73;;;6.93;;
25615;SDS011;13482;48.234;13.006;2024-01-30T06:20:39;10.05;;;6.78;;
25615;SDS011;13482;48.234;13.006;2024-01-30T06:23:09;8.82;;;6.63;;
25615;SDS011;13482;48.234;13.006;2024-01-30T06:25:36;10.27;;;6.68;;
25615;SDS011;13482;48.234;13.006;2024-01-30T06:28:05;9.43;;;7.18;;
25615;SDS011;13482;48.234;13.006;2024-01-30T06:30:32;9.55;;;6.38;;
25615;SDS011;13482;48.234;13.006;2024-01-30T06:33:00;10.73;;;7.35;;
25615;SDS011;13482;48.234;13.006;2024-01-30T06:35:27;12.38;;;7.93;;
25615;SDS011;13482;48.234;13.006;2024-01-30T06:37:55;11.90;;;7.50;;
25615;SDS011;13482;48.234;13.006;2024-01-30T06:40:23;12.57;;;7.32;;
25615;SDS011;13482;48.234;13.006;2024-01-30T06:42:50;12.63;;;8.18;;
25615;SDS011;13482;48.234;13.006;2024-01-30T06:45:18;9.82;;;7.00;;
25615;SDS011;13482;48.234;13.006;2024-01-30T06:47:45;12.52;;;7.32;;
25615;SDS011;13482;48.234;13.006;2024-01-30T06:50:16;10.60;;;7.35;;
25615;SDS011;13482;48.234;13.006;2024-01-30T06:52:44;14.57;;;8.32;;
25615;SDS011;13482;48.234;13.006;2024-01-30T06:55:12;12.93;;;8.40;;
25615;SDS011;13482;48.234;13.006;2024-01-30T06:57:39;14.50;;;9.25;;
25615;SDS011;13482;48.234;13.006;2024-01-30T07:00:07;16.38;;;10.35;;
25615;SDS011;13482;48.234;13.006;2024-01-30T07:02:35;20.40;;;12.23;;
25615;SDS011;13482;48.234;13.006;2024-01-30T07:05:03;19.58;;;11.70;;
25615;SDS011;13482;48.234;13.006;2024-01-30T07:07:31;18.08;;;11.07;;
25615;SDS011;13482;48.234;13.006;2024-01-30T07:09:59;17.35;;;11.50;;
25615;SDS011;13482;48.234;13.006;2024-01-30T07:12:27;18.77;;;10.63;;
25615;SDS011;13482;48.234;13.006;2024-01-30T07:14:54;15.80;;;9.90;;
25615;SDS011;13482;48.234;13.006;2024-01-30T07:17:23;16.65;;;10.05;;
25615;SDS011;13482;48.234;13.006;2024-01-30T07:19:50;15.77;;;8.82;;
25615;SDS011;13482;48.234;13.006;2024-01-30T07:22:17;12.65;;;8.52;;
25615;SDS011;13482;48.234;13.006;2024-01-30T07:24:45;13.02;;;8.23;;
25615;SDS011;13482;48.234;13.006;2024-01-30T07:27:14;12.93;;;8.40;;
25615;SDS011;13482;48.234;13.006;2024-01-30T07:29:44;13.40;;;8.77;;
25615;SDS011;13482;48.234;13.006;2024-01-30T07:32:12;12.48;;;7.70;;
25615;SDS011;13482;48.234;13.006;2024-01-30T07:34:39;11.77;;;7.78;;
25615;SDS011;13482;48.234;13.006;2024-01-30T07:37:24;9.30;;;6.70;;
25615;SDS011;13482;48.234;13.006;2024-01-30T07:39:51;11.15;;;7.47;;
25615;SDS011;13482;48.234;13.006;2024-01-30T07:42:19;9.63;;;6.28;;
25615;SDS011;13482;48.234;13.006;2024-01-30T07:44:46;8.65;;;6.13;;
25615;SDS011;13482;48.234;13.006;2024-01-30T07:47:14;8.60;;;5.63;;
25615;SDS011;13482;48.234;13.006;2024-01-30T07:49:41;8.05;;;5.50;;
25615;SDS011;13482;48.234;13.006;2024-01-30T07:52:09;8.23;;;6.07;;
25615;SDS011;13482;48.234;13.006;2024-01-30T07:58:00;9.15;;;6.07;;
25615;SDS011;13482;48.234;13.006;2024-01-30T08:00:28;10.65;;;7.13;;
25615;SDS011;13482;48.234;13.006;2024-01-30T08:02:56;10.10;;;6.35;;
25615;SDS011;13482;48.234;13.006;2024-01-30T08:05:23;9.35;;;6.50;;
25615;SDS011;13482;48.234;13.006;2024-01-30T08:07:51;9.38;;;6.45;;
25615;SDS011;13482;48.234;13.006;2024-01-30T08:10:19;10.23;;;6.22;;
25615;SDS011;13482;48.234;13.006;2024-01-30T08:12:47;8.27;;;6.07;;
25615;SDS011;13482;48.234;13.006;2024-01-30T08:15:15;8.70;;;6.45;;
25615;SDS011;13482;48.234;13.006;2024-01-30T08:17:42;9.10;;;6.63;;
25615;SDS011;13482;48.234;13.006;2024-01-30T08:20:11;8.38;;;6.55;;
25615;SDS011;13482;48.234;13.006;2024-01-30T08:22:40;8.30;;;6.35;;
25615;SDS011;13482;48.234;13.006;2024-01-30T08:25:08;9.15;;;6.35;;
25615;SDS011;13482;48.234;13.006;2024-01-30T08:27:36;9.05;;;6.38;;
25615;SDS011;13482;48.234;13.006;2024-01-30T08:30:08;7.63;;;5.93;;
25615;SDS011;13482;48.234;13.006;2024-01-30T08:32:36;8.82;;;6.35;;
25615;SDS011;13482;48.234;13.006;2024-01-30T08:35:04;8.82;;;6.22;;
25615;SDS011;13482;48.234;13.006;2024-01-30T08:37:33;8.48;;;6.15;;
25615;SDS011;13482;48.234;13.006;2024-01-30T08:40:02;8.07;;;6.22;;
25615;SDS011;13482;48.234;13.006;2024-01-30T08:42:31;8.98;;;5.93;;
25615;SDS011;13482;48.234;13.006;2024-01-30T08:44:59;9.48;;;6.85;;
25615;SDS011;13482;48.234;13.006;2024-01-30T08:47:27;9.43;;;6.88;;
25615;SDS011;13482;48.234;13.006;2024-01-30T08:49:54;9.30;;;6.53;;
25615;SDS011;13482;48.234;13.006;2024-01-30T08:52:22;8.93;;;6.15;;
25615;SDS011;13482;48.234;13.006;2024-01-30T08:54:49;9.35;;;6.53;;
25615;SDS011;13482;48.234;13.006;2024-01-30T08:57:17;8.48;;;6.70;;
25615;SDS011;13482;48.234;13.006;2024-01-30T08:59:44;9.65;;;7.10;;
25615;SDS011;13482;48.234;13.006;2024-01-30T09:02:13;8.80;;;7.05;;
25615;SDS011;13482;48.234;13.006;2024-01-30T09:04:43;10.82;;;7.38;;
25615;SDS011;13482;48.234;13.006;2024-01-30T09:07:10;9.80;;;7.50;;
25615;SDS011;13482;48.234;13.006;2024-01-30T09:09:40;10.63;;;8.00;;
25615;SDS011;13482;48.234;13.006;2024-01-30T09:12:08;10.60;;;8.18;;
25615;SDS011;13482;48.234;13.006;2024-01-30T09:14:39;9.95;;;7.22;;
25615;SDS011;13482;48.234;13.006;2024-01-30T09:17:08;10.35;;;7.40;;
25615;SDS011;13482;48.234;13.006;2024-01-30T09:19:35;10.90;;;8.40;;
25615;SDS011;13482;48.234;13.006;2024-01-30T09:22:03;10.95;;;8.65;;
25615;SDS011;13482;48.234;13.006;2024-01-30T09:24:31;10.55;;;7.85;;
25615;SDS011;13482;48.234;13.006;2024-01-30T09:26:59;13.50;;;8.45;;
25615;SDS011;13482;48.234;13.006;2024-01-30T09:29:26;12.38;;;9.07;;
25615;SDS011;13482;48.234;13.006;2024-01-30T09:31:54;14.07;;;9.20;;
25615;SDS011;13482;48.234;13.006;2024-01-30T09:34:21;11.93;;;8.07;;
25615;SDS011;13482;48.234;13.006;2024-01-30T09:36:49;11.65;;;8.73;;
25615;SDS011;13482;48.234;13.006;2024-01-30T09:39:17;12.80;;;9.00;;
25615;SDS011;13482;48.234;13.006;2024-01-30T09:41:51;10.65;;;8.98;;
25615;SDS011;13482;48.234;13.006;2024-01-30T09:44:44;10.98;;;8.50;;
25615;SDS011;13482;48.234;13.006;2024-01-30T09:47:14;11.98;;;8.75;;
25615;SDS011;13482;48.234;13.006;2024-01-30T09:49:43;10.90;;;8.82;;
25615;SDS011;13482;48.234;13.006;2024-01-30T09:52:12;10.90;;;8.85;;
25615;SDS011;13482;48.234;13.006;2024-01-30T09:54:40;11.05;;;8.38;;
25615;SDS011;13482;48.234;13.006;2024-01-30T09:57:09;10.82;;;8.70;;
25615;SDS011;13482;48.234;13.006;2024-01-30T09:59:38;10.02;;;8.35;;
25615;SDS011;13482;48.234;13.006;2024-01-30T10:02:09;11.05;;;8.48;;
25615;SDS011;13482;48.234;13.006;2024-01-30T10:04:37;10.88;;;8.15;;
25615;SDS011;13482;48.234;13.006;2024-01-30T10:07:05;10.40;;;8.40;;
25615;SDS011;13482;48.234;13.006;2024-01-30T10:09:34;10.00;;;8.60;;
25615;SDS011;13482;48.234;13.006;2024-01-30T10:12:01;8.90;;;7.65;;
25615;SDS011;13482;48.234;13.006;2024-01-30T10:14:30;9.93;;;7.93;;
25615;SDS011;13482;48.234;13.006;2024-01-30T10:16:57;11.05;;;8.80;;
25615;SDS011;13482;48.234;13.006;2024-01-30T10:19:25;11.20;;;8.35;;
25615;SDS011;13482;48.234;13.006;2024-01-30T10:21:53;10.93;;;8.57;;
25615;SDS011;13482;48.234;13.006;2024-01-30T10:24:24;11.40;;;8.45;;
25615;SDS011;13482;48.234;13.006;2024-01-30T10:26:55;9.93;;;8.02;;
25615;SDS011;13482;48.234;13.006;2024-01-30T10:29:24;8.90;;;7.75;;
25615;SDS011;13482;48.234;13.006;2024-01-30T10:32:01;10.32;;;8.20;;
25615;SDS011;13482;48.234;13.006;2024-01-30T10:34:31;10.38;;;8.40;;
25615;SDS011;13482;48.234;13.006;2024-01-30T10:37:06;11.30;;;8.63;;
25615;SDS011;13482;48.234;13.006;2024-01-30T10:39:45;10.20;;;8.27;;
25615;SDS011;13482;48.234;13.006;2024-01-30T10:42:14;10.65;;;8.32;;
25615;SDS011;13482;48.234;13.006;2024-01-30T10:47:21;9.18;;;8.18;;
25615;SDS011;13482;48.234;13.006;2024-01-30T10:49:54;12.15;;;9.23;;
25615;SDS011;13482;48.234;13.006;2024-01-30T10:52:23;10.23;;;8.48;;
25615;SDS011;13482;48.234;13.006;2024-01-30T10:54:56;10.45;;;8.45;;
25615;SDS011;13482;48.234;13.006;2024-01-30T10:57:28;11.60;;;8.73;;
25615;SDS011;13482;48.234;13.006;2024-01-30T10:59:56;9.95;;;8.38;;
25615;SDS011;13482;48.234;13.006;2024-01-30T11:02:27;9.73;;;8.07;;
25615;SDS011;13482;48.234;13.006;2024-01-30T11:04:59;9.57;;;7.80;;
25615;SDS011;13482;48.234;13.006;2024-01-30T11:10:01;8.02;;;6.75;;
25615;SDS011;13482;48.234;13.006;2024-01-30T11:12:39;9.02;;;7.20;;
25615;SDS011;13482;48.234;13.006;2024-01-30T11:15:10;10.30;;;8.32;;
25615;SDS011;13482;48.234;13.006;2024-01-30T11:20:16;11.65;;;8.45;;
25615;SDS011;13482;48.234;13.006;2024-01-30T11:22:48;9.73;;;8.70;;
25615;SDS011;13482;48.234;13.006;2024-01-30T11:27:49;9.20;;;7.13;;
25615;SDS011;13482;48.234;13.006;2024-01-30T11:30:26;8.77;;;7.32;;
25615;SDS011;13482;48.234;13.006;2024-01-30T11:33:07;9.50;;;7.43;;
25615;SDS011;13482;48.234;13.006;2024-01-30T11:35:39;9.35;;;7.63;;
25615;SDS011;13482;48.234;13.006;2024-01-30T11:38:14;10.57;;;7.95;;
25615;SDS011;13482;48.234;13.006;2024-01-30T11:40:42;10.20;;;8.27;;
25615;SDS011;13482;48.234;13.006;2024-01-30T11:43:11;10.57;;;8.57;;
25615;SDS011;13482;48.234;13.006;2024-01-30T11:45:39;8.80;;;7.47;;
25615;SDS011;13482;48.234;13.006;2024-01-30T11:48:07;8.95;;;7.50;;
25615;SDS011;13482;48.234;13.006;2024-01-30T11:50:38;9.52;;;7.97;;
25615;SDS011;13482;48.234;13.006;2024-01-30T11:53:07;9.75;;;7.90;;
25615;SDS011;13482;48.234;13.006;2024-01-30T11:55:36;9.38;;;7.97;;
25615;SDS011;13482;48.234;13.006;2024-01-30T11:58:05;10.15;;;7.97;;
25615;SDS011;13482;48.234;13.006;2024-01-30T12:00:33;8.43;;;7.20;;
25615;SDS011;13482;48.234;13.006;2024-01-30T12:03:03;12.63;;;8.55;;
25615;SDS011;13482;48.234;13.006;2024-01-30T12:05:34;8.68;;;7.55;;
25615;SDS011;13482;48.234;13.006;2024-01-30T12:08:02;9.98;;;7.95;;
25615;SDS011;13482;48.234;13.006;2024-01-30T12:10:30;10.57;;;7.78;;
25615;SDS011;13482;48.234;13.006;2024-01-30T12:13:00;9.40;;;7.43;;
25615;SDS011;13482;48.234;13.006;2024-01-30T12:15:30;9.13;;;7.32;;
25615;SDS011;13482;48.234;13.006;2024-01-30T12:18:06;10.25;;;7.15;;
25615;SDS011;13482;48.234;13.006;2024-01-30T12:20:36;8.20;;;6.97;;
25615;SDS011;13482;48.234;13.006;2024-01-30T12:23:04;9.27;;;7.63;;
25615;SDS011;13482;48.234;13.006;2024-01-30T12:25:32;8.63;;;7.25;;
25615;SDS011;13482;48.234;13.006;2024-01-30T12:28:00;10.45;;;8.13;;
25615;SDS011;13482;48.234;13.006;2024-01-30T12:30:35;9.13;;;7.53;;
25615;SDS011;13482;48.234;13.006;2024-01-30T12:33:03;9.07;;;7.82;;
25615;SDS011;13482;48.234;13.006;2024-01-30T12:35:34;8.98;;;7.53;;
25615;SDS011;13482;48.234;13.006;2024-01-30T12:38:14;8.88;;;7.38;;
25615;SDS011;13482;48.234;13.006;2024-01-30T12:40:45;9.30;;;7.13;;
25615;SDS011;13482;48.234;13.006;2024-01-30T12:43:14;8.80;;;7.22;;
25615;SDS011;13482;48.234;13.006;2024-01-30T12:46:00;10.20;;;7.05;;
25615;SDS011;13482;48.234;13.006;2024-01-30T12:48:28;8.88;;;7.32;;
25615;SDS011;13482;48.234;13.006;2024-01-30T12:51:01;8.45;;;7.10;;
25615;SDS011;13482;48.234;13.006;2024-01-30T12:53:32;8.27;;;6.68;;
25615;SDS011;13482;48.234;13.006;2024-01-30T12:56:01;8.15;;;6.53;;
25615;SDS011;13482;48.234;13.006;2024-01-30T12:58:32;7.55;;;6.18;;
25615;SDS011;13482;48.234;13.006;2024-01-30T13:01:01;7.55;;;6.53;;
25615;SDS011;13482;48.234;13.006;2024-01-30T13:03:29;8.38;;;6.60;;
25615;SDS011;13482;48.234;13.006;2024-01-30T13:08:33;6.63;;;5.53;;
25615;SDS011;13482;48.234;13.006;2024-01-30T13:11:01;7.22;;;6.00;;
25615;SDS011;13482;48.234;13.006;2024-01-30T13:13:32;7.65;;;6.20;;
25615;SDS011;13482;48.234;13.006;2024-01-30T13:16:07;7.45;;;6.53;;
25615;SDS011;13482;48.234;13.006;2024-01-30T13:18:38;8.50;;;6.45;;
25615;SDS011;13482;48.234;13.006;2024-01-30T13:21:08;7.10;;;6.40;;
25615;SDS011;13482;48.234;13.006;2024-01-30T13:24:14;8.77;;;6.93;;
25615;SDS011;13482;48.234;13.006;2024-01-30T13:26:44;7.53;;;6.47;;
25615;SDS011;13482;48.234;13.006;2024-01-30T13:56:55;7.80;;;6.00;;
25615;SDS011;13482;48.234;13.006;2024-01-30T13:59:43;7.20;;;5.70;;
25615;SDS011;13482;48.234;13.006;2024-01-30T14:02:34;6.78;;;5.57;;
25615;SDS011;13482;48.234;13.006;2024-01-30T14:05:48;7.55;;;5.70;;
25615;SDS011;13482;48.234;13.006;2024-01-30T14:08:21;7.45;;;6.07;;
25615;SDS011;13482;48.234;13.006;2024-01-30T14:11:03;6.85;;;5.57;;
25615;SDS011;13482;48.234;13.006;2024-01-30T14:13:46;6.85;;;5.93;;
25615;SDS011;13482;48.234;13.006;2024-01-30T14:16:23;7.57;;;6.18;;
25615;SDS011;13482;48.234;13.006;2024-01-30T14:19:17;6.50;;;5.72;;
25615;SDS011;13482;48.234;13.006;2024-01-30T14:21:51;7.75;;;6.40;;
25615;SDS011;13482;48.234;13.006;2024-01-30T14:24:23;8.15;;;6.13;;
25615;SDS011;13482;48.234;13.006;2024-01-30T14:27:33;8.35;;;6.00;;
25615;SDS011;13482;48.234;13.006;2024-01-30T14:30:10;7.65;;;6.55;;
25615;SDS011;13482;48.234;13.006;2024-01-30T14:32:42;7.07;;;6.10;;
25615;SDS011;13482;48.234;13.006;2024-01-30T14:35:23;7.45;;;6.22;;
25615;SDS011;13482;48.234;13.006;2024-01-30T14:37:57;7.82;;;6.70;;
25615;SDS011;13482;48.234;13.006;2024-01-30T14:41:25;6.95;;;6.07;;
25615;SDS011;13482;48.234;13.006;2024-01-30T14:43:53;8.00;;;6.57;;
25615;SDS011;13482;48.234;13.006;2024-01-30T14:46:24;7.28;;;6.18;;
25615;SDS011;13482;48.234;13.006;2024-01-30T14:49:02;7.50;;;6.72;;
25615;SDS011;13482;48.234;13.006;2024-01-30T14:51:35;7.18;;;6.15;;
25615;SDS011;13482;48.234;13.006;2024-01-30T14:54:06;7.25;;;6.22;;
25615;SDS011;13482;48.234;13.006;2024-01-30T14:56:34;7.60;;;6.38;;
25615;SDS011;13482;48.234;13.006;2024-01-30T14:59:07;6.85;;;6.00;;
25615;SDS011;13482;48.234;13.006;2024-01-30T15:01:36;7.47;;;6.18;;
25615;SDS011;13482;48.234;13.006;2024-01-30T15:04:07;7.32;;;6.43;;
25615;SDS011;13482;48.234;13.006;2024-01-30T15:06:43;7.95;;;6.90;;
25615;SDS011;13482;48.234;13.006;2024-01-30T15:09:15;8.48;;;6.68;;
25615;SDS011;13482;48.234;13.006;2024-01-30T15:11:55;8.38;;;7.20;;
25615;SDS011;13482;48.234;13.006;2024-01-30T15:14:24;8.25;;;6.68;;
25615;SDS011;13482;48.234;13.006;2024-01-30T15:16:57;8.73;;;7.38;;
25615;SDS011;13482;48.234;13.006;2024-01-30T15:19:27;9.18;;;7.32;;
25615;SDS011;13482;48.234;13.006;2024-01-30T15:22:00;6.90;;;6.07;;
25615;SDS011;13482;48.234;13.006;2024-01-30T15:24:34;7.57;;;6.60;;
25615;SDS011;13482;48.234;13.006;2024-01-30T15:27:02;7.63;;;6.50;;
25615;SDS011;13482;48.234;13.006;2024-01-30T15:29:30;8.65;;;7.75;;
25615;SDS011;13482;48.234;13.006;2024-01-30T15:31:59;8.65;;;7.10;;
25615;SDS011;13482;48.234;13.006;2024-01-30T15:34:28;8.88;;;7.30;;
25615;SDS011;13482;48.234;13.006;2024-01-30T15:42:16;8.70;;;7.30;;
25615;SDS011;13482;48.234;13.006;2024-01-30T15:44:57;10.50;;;8.02;;
25615;SDS011;13482;48.234;13.006;2024-01-30T15:47:28;10.25;;;8.50;;
25615;SDS011;13482;48.234;13.006;2024-01-30T15:49:56;9.57;;;7.85;;
25615;SDS011;13482;48.234;13.006;2024-01-30T15:52:24;9.98;;;8.15;;
25615;SDS011;13482;48.234;13.006;2024-01-30T15:54:52;12.07;;;8.65;;
25615;SDS011;13482;48.234;13.006;2024-01-30T15:57:20;11.57;;;8.73;;
25615;SDS011;13482;48.234;13.006;2024-01-30T15:59:53;9.77;;;8.18;;
25615;SDS011;13482;48.234;13.006;2024-01-30T16:02:23;9.63;;;8.23;;
25615;SDS011;13482;48.234;13.006;2024-01-30T16:04:50;10.02;;;8.38;;
25615;SDS011;13482;48.234;13.006;2024-01-30T16:07:18;9.43;;;7.60;;
25615;SDS011;13482;48.234;13.006;2024-01-30T16:09:46;9.73;;;7.93;;
25615;SDS011;13482;48.234;13.006;2024-01-30T16:12:16;10.32;;;7.25;;
25615;SDS011;13482;48.234;13.006;2024-01-30T16:14:43;9.40;;;7.55;;
25615;SDS011;13482;48.234;13.006;2024-01-30T16:17:11;8.00;;;6.55;;
25615;SDS011;13482;48.234;13.006;2024-01-30T16:19:39;8.93;;;6.93;;
25615;SDS011;13482;48.234;13.006;2024-01-30T16:22:07;7.45;;;5.78;;
25615;SDS011;13482;48.234;13.006;2024-01-30T16:24:42;10.57;;;7.60;;
25615;SDS011;13482;48.234;13.006;2024-01-30T16:27:10;8.68;;;7.25;;